메인 페이지
METAR-TAF:

METAR-TAF

공항 :

첸나이 국제공항

첸나이, 인도

위도: 13-00N, 경도: 080-11E, 고도: 10m

현재 날씨관측

예보는 13분 전, 15:30시(UTC)에 발표되었습니다.
무풍
온도 32°C
습도 63%
기압 1003 hPa
시정: 6000m
고도 2000ft 상공 구름 보통

METAR: VOMM 191530Z 00000KT 6000 SCT020 32/24 Q1003 NOSIG

시각: 21:13 (15:43 UTC)

예보

예보는 4 시간 43분 전, 11:00시(UTC)에 발표되었습니다.
예보 대상 시간: 19일 12시부터 20일 18시까지 (UTC)
5kt
시정: 6000m
고도 2000ft 상공 구름 조금
고도 10000ft 상공 구름 보통
일시적
19일 12시부터 19일 18시까지 (UTC)
시정: 4000m
고도 1800ft 상공 구름 보통
고도 2500ft 상공 구름 조금, 적란운.
고도 8000ft 상공 구름 많음
전환 중
19일 18시부터 19일 19시까지 (UTC)
남서10kt
전환 중
20일 12시부터 20일 13시까지 (UTC)
5kt

TAF: VOMM 191100Z 1912/2018 18005KT 6000 FEW020 SCT100 TEMPO 1912/1918 4000 -TSRA/RA SCT018 FEW025CB BKN080 BECMG 1918/1919 23010KT BECMG 2012/2013 18005KT

4,000개 이상의 공항 관측 자료 및 예보 (METAR 및 TAF 보고).

지도상에서 검색 가능한 기상관측소가 노란 점과 빨간 점으로 표시되어 있습니다.

기상관측소 명을 보려면 표시 위로 마우스를 이동하세요.

날씨 관측과 예보를 보려면 클릭하세요.

지도 변경 : 확대하려면 엑스 표시가 있는 녹색 버튼, 축소하려면 빼기 표시가 있는 녹색 버튼, 다음 페이지의 지도를 보려면 녹색 화살표를 클릭하세요.


METAR-TAF: